sensor_id;sensor_type;location;lat;lon;timestamp;pressure;altitude;pressure_sealevel;temperature;humidity
9091;BME280;4581;42.416;25.598;2023-05-08T00:00:06;66728.66;;;0.00;nan
9091;BME280;4581;42.416;25.598;2023-05-08T00:02:33;66733.25;;;0.00;nan
9091;BME280;4581;42.416;25.598;2023-05-08T00:05:00;66733.25;;;0.00;nan
9091;BME280;4581;42.416;25.598;2023-05-08T00:07:27;66736.28;;;0.00;nan
9091;BME280;4581;42.416;25.598;2023-05-08T00:09:53;66742.41;;;0.00;nan
9091;BME280;4581;42.416;25.598;2023-05-08T00:12:20;66737.81;;;0.00;nan
9091;BME280;4581;42.416;25.598;2023-05-08T00:14:47;66745.44;;;0.00;nan
9091;BME280;4581;42.416;25.598;2023-05-08T00:17:13;66751.53;;;0.00;nan
9091;BME280;4581;42.416;25.598;2023-05-08T00:19:40;66750.03;;;0.00;nan
9091;BME280;4581;42.416;25.598;2023-05-08T00:22:07;66750.03;;;0.00;nan
9091;BME280;4581;42.416;25.598;2023-05-08T00:24:33;66759.19;;;0.00;nan
9091;BME280;4581;42.416;25.598;2023-05-08T00:27:00;66756.13;;;0.00;nan
9091;BME280;4581;42.416;25.598;2023-05-08T00:29:27;66754.59;;;0.00;nan
9091;BME280;4581;42.416;25.598;2023-05-08T00:31:54;66757.66;;;0.00;nan
9091;BME280;4581;42.416;25.598;2023-05-08T00:34:21;66759.19;;;0.00;nan
9091;BME280;4581;42.416;25.598;2023-05-08T00:36:47;66760.69;;;0.00;nan
9091;BME280;4581;42.416;25.598;2023-05-08T00:39:14;66757.66;;;0.00;nan
9091;BME280;4581;42.416;25.598;2023-05-08T00:41:41;66762.22;;;0.00;nan
9091;BME280;4581;42.416;25.598;2023-05-08T00:44:08;66762.22;;;0.00;nan
9091;BME280;4581;42.416;25.598;2023-05-08T00:46:35;66754.59;;;0.00;nan
9091;BME280;4581;42.416;25.598;2023-05-08T00:49:03;66757.66;;;0.00;nan
9091;BME280;4581;42.416;25.598;2023-05-08T00:51:31;66768.34;;;0.00;nan
9091;BME280;4581;42.416;25.598;2023-05-08T00:53:59;66768.34;;;0.00;nan
9091;BME280;4581;42.416;25.598;2023-05-08T00:56:27;66769.84;;;0.00;nan
9091;BME280;4581;42.416;25.598;2023-05-08T00:58:54;66772.91;;;0.00;nan
9091;BME280;4581;42.416;25.598;2023-05-08T01:01:22;66780.53;;;0.00;nan
9091;BME280;4581;42.416;25.598;2023-05-08T01:03:49;66779.00;;;0.00;nan
9091;BME280;4581;42.416;25.598;2023-05-08T01:06:16;66775.97;;;0.00;nan
9091;BME280;4581;42.416;25.598;2023-05-08T01:08:43;66777.50;;;0.00;nan
9091;BME280;4581;42.416;25.598;2023-05-08T01:11:18;66775.97;;;0.00;nan
9091;BME280;4581;42.416;25.598;2023-05-08T01:24:59;66797.31;;;0.00;nan
9091;BME280;4581;42.416;25.598;2023-05-08T01:36:43;66832.41;;;0.00;nan
9091;BME280;4581;42.416;25.598;2023-05-08T01:39:20;66843.09;;;0.00;nan
9091;BME280;4581;42.416;25.598;2023-05-08T01:42:06;66840.06;;;0.00;nan
9091;BME280;4581;42.416;25.598;2023-05-08T01:44:44;66853.78;;;0.00;nan
9091;BME280;4581;42.416;25.598;2023-05-08T01:47:13;66867.50;;;0.00;nan
9091;BME280;4581;42.416;25.598;2023-05-08T01:49:44;66878.19;;;0.00;nan
9091;BME280;4581;42.416;25.598;2023-05-08T01:52:17;66885.81;;;0.00;nan
9091;BME280;4581;42.416;25.598;2023-05-08T01:54:55;66894.97;;;0.00;nan
9091;BME280;4581;42.416;25.598;2023-05-08T01:57:26;66891.94;;;0.00;nan
9091;BME280;4581;42.416;25.598;2023-05-08T01:59:56;66898.03;;;0.00;nan
9091;BME280;4581;42.416;25.598;2023-05-08T02:02:27;66910.25;;;0.00;nan
9091;BME280;4581;42.416;25.598;2023-05-08T02:04:55;66905.66;;;0.00;nan
9091;BME280;4581;42.416;25.598;2023-05-08T02:07:24;66907.19;;;0.00;nan
9091;BME280;4581;42.416;25.598;2023-05-08T02:09:53;66905.66;;;0.00;nan
9091;BME280;4581;42.416;25.598;2023-05-08T02:12:21;66905.66;;;0.00;nan
9091;BME280;4581;42.416;25.598;2023-05-08T02:14:50;66907.19;;;0.00;nan
9091;BME280;4581;42.416;25.598;2023-05-08T02:17:19;66907.19;;;0.00;nan
9091;BME280;4581;42.416;25.598;2023-05-08T02:19:46;66910.25;;;0.00;nan
9091;BME280;4581;42.416;25.598;2023-05-08T02:22:15;66910.25;;;0.00;nan
9091;BME280;4581;42.416;25.598;2023-05-08T02:24:44;66916.34;;;0.00;nan
9091;BME280;4581;42.416;25.598;2023-05-08T02:27:12;66910.25;;;0.00;nan
9091;BME280;4581;42.416;25.598;2023-05-08T02:29:41;66911.75;;;0.00;nan
9091;BME280;4581;42.416;25.598;2023-05-08T02:32:08;66911.75;;;0.00;nan
9091;BME280;4581;42.416;25.598;2023-05-08T02:34:35;66916.34;;;0.00;nan
9091;BME280;4581;42.416;25.598;2023-05-08T02:37:04;66914.81;;;0.00;nan
9091;BME280;4581;42.416;25.598;2023-05-08T02:39:32;66913.28;;;0.00;nan
9091;BME280;4581;42.416;25.598;2023-05-08T02:42:00;66913.28;;;0.00;nan
9091;BME280;4581;42.416;25.598;2023-05-08T02:44:27;66911.75;;;0.00;nan
9091;BME280;4581;42.416;25.598;2023-05-08T02:50:05;66916.34;;;0.00;nan
9091;BME280;4581;42.416;25.598;2023-05-08T02:52:51;66908.72;;;0.00;nan
9091;BME280;4581;42.416;25.598;2023-05-08T03:00:30;66927.03;;;0.00;nan
9091;BME280;4581;42.416;25.598;2023-05-08T03:03:47;66925.50;;;0.00;nan
9091;BME280;4581;42.416;25.598;2023-05-08T03:06:14;66927.03;;;0.00;nan
9091;BME280;4581;42.416;25.598;2023-05-08T03:08:43;66928.56;;;0.00;nan
9091;BME280;4581;42.416;25.598;2023-05-08T03:11:14;66931.59;;;0.00;nan
9091;BME280;4581;42.416;25.598;2023-05-08T03:13:43;66936.19;;;0.00;nan
9091;BME280;4581;42.416;25.598;2023-05-08T03:16:19;66945.34;;;0.00;nan
9091;BME280;4581;42.416;25.598;2023-05-08T03:21:18;66956.00;;;0.00;nan
9091;BME280;4581;42.416;25.598;2023-05-08T03:23:47;66949.91;;;0.00;nan
9091;BME280;4581;42.416;25.598;2023-05-08T03:26:18;66954.50;;;0.00;nan
9091;BME280;4581;42.416;25.598;2023-05-08T03:28:47;66959.06;;;0.00;nan
9091;BME280;4581;42.416;25.598;2023-05-08T03:31:18;66959.06;;;0.00;nan
9091;BME280;4581;42.416;25.598;2023-05-08T03:33:52;66957.53;;;0.00;nan
9091;BME280;4581;42.416;25.598;2023-05-08T03:36:19;66957.53;;;0.00;nan
9091;BME280;4581;42.416;25.598;2023-05-08T03:38:47;66959.06;;;0.00;nan
9091;BME280;4581;42.416;25.598;2023-05-08T03:41:14;66957.53;;;0.00;nan
9091;BME280;4581;42.416;25.598;2023-05-08T03:43:42;66960.59;;;0.00;nan
9091;BME280;4581;42.416;25.598;2023-05-08T03:46:09;66959.06;;;0.00;nan
9091;BME280;4581;42.416;25.598;2023-05-08T03:48:37;66952.97;;;0.00;nan
9091;BME280;4581;42.416;25.598;2023-05-08T03:51:04;66956.00;;;0.00;nan
9091;BME280;4581;42.416;25.598;2023-05-08T03:53:32;66956.00;;;0.00;nan
9091;BME280;4581;42.416;25.598;2023-05-08T03:55:59;66956.00;;;0.00;nan
9091;BME280;4581;42.416;25.598;2023-05-08T04:01:39;66948.38;;;0.00;nan
9091;BME280;4581;42.416;25.598;2023-05-08T04:04:18;66946.88;;;0.00;nan
9091;BME280;4581;42.416;25.598;2023-05-08T04:09:30;66920.91;;;0.00;nan
9091;BME280;4581;42.416;25.598;2023-05-08T04:12:19;66910.25;;;0.00;nan
9091;BME280;4581;42.416;25.598;2023-05-08T04:14:52;66902.59;;;0.00;nan
9091;BME280;4581;42.416;25.598;2023-05-08T04:17:30;66885.81;;;0.00;nan
9091;BME280;4581;42.416;25.598;2023-05-08T04:20:03;66879.72;;;0.00;nan
9091;BME280;4581;42.416;25.598;2023-05-08T04:22:32;66870.56;;;0.00;nan
9091;BME280;4581;42.416;25.598;2023-05-08T04:25:02;66862.94;;;0.00;nan
9091;BME280;4581;42.416;25.598;2023-05-08T04:27:30;66855.31;;;0.00;nan
9091;BME280;4581;42.416;25.598;2023-05-08T04:29:57;66846.16;;;0.00;nan
9091;BME280;4581;42.416;25.598;2023-05-08T04:32:24;66837.00;;;0.00;nan
9091;BME280;4581;42.416;25.598;2023-05-08T04:34:52;66829.38;;;0.00;nan
9091;BME280;4581;42.416;25.598;2023-05-08T04:37:24;66818.69;;;0.00;nan
9091;BME280;4581;42.416;25.598;2023-05-08T04:39:52;66809.53;;;0.00;nan
9091;BME280;4581;42.416;25.598;2023-05-08T04:42:19;66803.44;;;0.00;nan
9091;BME280;4581;42.416;25.598;2023-05-08T04:44:46;66792.75;;;0.00;nan
9091;BME280;4581;42.416;25.598;2023-05-08T04:47:13;66789.69;;;0.00;nan
9091;BME280;4581;42.416;25.598;2023-05-08T04:49:40;66806.47;;;0.00;nan
9091;BME280;4581;42.416;25.598;2023-05-08T04:52:07;66789.69;;;0.00;nan
9091;BME280;4581;42.416;25.598;2023-05-08T04:54:34;66763.75;;;0.00;nan
9091;BME280;4581;42.416;25.598;2023-05-08T04:57:01;66739.34;;;0.00;nan
9091;BME280;4581;42.416;25.598;2023-05-08T04:59:27;66717.97;;;0.00;nan
9091;BME280;4581;42.416;25.598;2023-05-08T05:01:55;66695.09;;;0.00;nan
9091;BME280;4581;42.416;25.598;2023-05-08T05:04:22;66681.34;;;0.00;nan
9091;BME280;4581;42.416;25.598;2023-05-08T05:06:49;66672.19;;;0.00;nan
9091;BME280;4581;42.416;25.598;2023-05-08T05:09:16;66647.78;;;0.00;nan
9091;BME280;4581;42.416;25.598;2023-05-08T05:11:42;66641.69;;;0.00;nan
9091;BME280;4581;42.416;25.598;2023-05-08T05:14:09;66629.47;;;0.00;nan
9091;BME280;4581;42.416;25.598;2023-05-08T05:16:35;66641.69;;;0.00;nan
9091;BME280;4581;42.416;25.598;2023-05-08T05:19:02;66612.69;;;0.00;nan
9091;BME280;4581;42.416;25.598;2023-05-08T05:21:30;66620.31;;;0.00;nan
9091;BME280;4581;42.416;25.598;2023-05-08T05:23:57;66595.91;;;0.00;nan
9091;BME280;4581;42.416;25.598;2023-05-08T05:26:23;66574.53;;;0.00;nan
9091;BME280;4581;42.416;25.598;2023-05-08T05:28:50;66583.69;;;0.00;nan
9091;BME280;4581;42.416;25.598;2023-05-08T05:31:17;66527.25;;;0.00;nan
9091;BME280;4581;42.416;25.598;2023-05-08T05:33:43;66484.53;;;0.00;nan
9091;BME280;4581;42.416;25.598;2023-05-08T05:36:11;66473.84;;;0.00;nan
9091;BME280;4581;42.416;25.598;2023-05-08T05:38:37;66472.31;;;0.00;nan
9091;BME280;4581;42.416;25.598;2023-05-08T05:41:04;66438.75;;;0.00;nan
9091;BME280;4581;42.416;25.598;2023-05-08T05:43:31;66440.25;;;0.00;nan
9091;BME280;4581;42.416;25.598;2023-05-08T05:46:05;66392.97;;;0.00;nan
9091;BME280;4581;42.416;25.598;2023-05-08T05:48:32;66377.72;;;0.00;nan
9091;BME280;4581;42.416;25.598;2023-05-08T05:50:59;66371.59;;;0.00;nan
9091;BME280;4581;42.416;25.598;2023-05-08T05:53:25;66421.97;;;0.00;nan
9091;BME280;4581;42.416;25.598;2023-05-08T05:55:52;66374.66;;;0.00;nan
9091;BME280;4581;42.416;25.598;2023-05-08T05:58:19;66363.97;;;0.00;nan
9091;BME280;4581;42.416;25.598;2023-05-08T06:00:46;66400.59;;;0.00;nan
9091;BME280;4581;42.416;25.598;2023-05-08T06:03:15;66373.13;;;0.00;nan
9091;BME280;4581;42.416;25.598;2023-05-08T06:05:42;66328.88;;;0.00;nan
9091;BME280;4581;42.416;25.598;2023-05-08T06:08:09;66319.72;;;0.00;nan
9091;BME280;4581;42.416;25.598;2023-05-08T06:10:36;66319.72;;;0.00;nan
9091;BME280;4581;42.416;25.598;2023-05-08T06:13:03;66339.56;;;0.00;nan
9091;BME280;4581;42.416;25.598;2023-05-08T06:15:30;66299.88;;;0.00;nan
9091;BME280;4581;42.416;25.598;2023-05-08T06:17:56;66286.16;;;0.00;nan
9091;BME280;4581;42.416;25.598;2023-05-08T06:20:23;66277.00;;;0.00;nan
9091;BME280;4581;42.416;25.598;2023-05-08T06:22:51;66264.78;;;0.00;nan
9091;BME280;4581;42.416;25.598;2023-05-08T06:25:18;66246.47;;;0.00;nan
9091;BME280;4581;42.416;25.598;2023-05-08T06:27:45;66246.47;;;0.00;nan
9091;BME280;4581;42.416;25.598;2023-05-08T06:30:12;66228.16;;;0.00;nan
9091;BME280;4581;42.416;25.598;2023-05-08T06:32:38;66234.28;;;0.00;nan
9091;BME280;4581;42.416;25.598;2023-05-08T06:35:05;66231.22;;;0.00;nan
9091;BME280;4581;42.416;25.598;2023-05-08T06:37:32;66199.19;;;0.00;nan
9091;BME280;4581;42.416;25.598;2023-05-08T06:39:59;66196.13;;;0.00;nan
9091;BME280;4581;42.416;25.598;2023-05-08T06:42:37;66183.91;;;0.00;nan
9091;BME280;4581;42.416;25.598;2023-05-08T06:45:04;66208.34;;;0.00;nan
9091;BME280;4581;42.416;25.598;2023-05-08T06:47:30;66199.19;;;0.00;nan
9091;BME280;4581;42.416;25.598;2023-05-08T06:49:59;66202.22;;;0.00;nan
9091;BME280;4581;42.416;25.598;2023-05-08T06:52:25;66257.16;;;0.00;nan
9091;BME280;4581;42.416;25.598;2023-05-08T06:54:52;66220.53;;;0.00;nan
9091;BME280;4581;42.416;25.598;2023-05-08T06:57:19;66208.34;;;0.00;nan
9091;BME280;4581;42.416;25.598;2023-05-08T06:59:46;66191.53;;;0.00;nan
9091;BME280;4581;42.416;25.598;2023-05-08T07:02:13;66165.59;;;0.00;nan
9091;BME280;4581;42.416;25.598;2023-05-08T07:04:42;66150.34;;;0.00;nan
9091;BME280;4581;42.416;25.598;2023-05-08T07:07:09;66164.09;;;0.00;nan
9091;BME280;4581;42.416;25.598;2023-05-08T07:09:36;66177.81;;;0.00;nan
9091;BME280;4581;42.416;25.598;2023-05-08T07:12:03;66164.09;;;0.00;nan
9091;BME280;4581;42.416;25.598;2023-05-08T07:14:30;66138.13;;;0.00;nan
9091;BME280;4581;42.416;25.598;2023-05-08T07:16:57;66138.13;;;0.00;nan
9091;BME280;4581;42.416;25.598;2023-05-08T07:19:24;66125.94;;;0.00;nan
9091;BME280;4581;42.416;25.598;2023-05-08T07:21:50;66086.25;;;0.00;nan
9091;BME280;4581;42.416;25.598;2023-05-08T07:24:17;66058.78;;;0.00;nan
9091;BME280;4581;42.416;25.598;2023-05-08T07:26:44;66049.63;;;0.00;nan
9091;BME280;4581;42.416;25.598;2023-05-08T07:29:11;66043.53;;;0.00;nan
9091;BME280;4581;42.416;25.598;2023-05-08T07:31:38;66025.22;;;0.00;nan
9091;BME280;4581;42.416;25.598;2023-05-08T07:34:05;66028.28;;;0.00;nan
9091;BME280;4581;42.416;25.598;2023-05-08T07:36:32;66034.38;;;0.00;nan
9091;BME280;4581;42.416;25.598;2023-05-08T07:38:59;66017.59;;;0.00;nan
9091;BME280;4581;42.416;25.598;2023-05-08T07:41:26;66017.59;;;0.00;nan
9091;BME280;4581;42.416;25.598;2023-05-08T07:43:52;66019.13;;;0.00;nan
9091;BME280;4581;42.416;25.598;2023-05-08T07:46:19;66028.28;;;0.00;nan
9091;BME280;4581;42.416;25.598;2023-05-08T07:48:47;66052.69;;;0.00;nan
9091;BME280;4581;42.416;25.598;2023-05-08T07:51:14;66016.06;;;0.00;nan
9091;BME280;4581;42.416;25.598;2023-05-08T07:53:41;66003.88;;;0.00;nan
9091;BME280;4581;42.416;25.598;2023-05-08T07:56:07;66005.38;;;0.00;nan
9091;BME280;4581;42.416;25.598;2023-05-08T07:58:34;66064.91;;;0.00;nan
9091;BME280;4581;42.416;25.598;2023-05-08T08:01:01;66025.22;;;0.00;nan
9091;BME280;4581;42.416;25.598;2023-05-08T08:03:28;66031.31;;;0.00;nan
9091;BME280;4581;42.416;25.598;2023-05-08T08:05:55;66038.97;;;0.00;nan
9091;BME280;4581;42.416;25.598;2023-05-08T08:08:22;65988.59;;;0.00;nan
9091;BME280;4581;42.416;25.598;2023-05-08T08:10:49;66013.03;;;0.00;nan
9091;BME280;4581;42.416;25.598;2023-05-08T08:13:15;66040.47;;;0.00;nan
9091;BME280;4581;42.416;25.598;2023-05-08T08:15:43;66100.00;;;0.00;nan
9091;BME280;4581;42.416;25.598;2023-05-08T08:18:09;66080.16;;;0.00;nan
9091;BME280;4581;42.416;25.598;2023-05-08T08:20:36;66051.16;;;0.00;nan
9091;BME280;4581;42.416;25.598;2023-05-08T08:23:03;66058.78;;;0.00;nan
9091;BME280;4581;42.416;25.598;2023-05-08T08:25:30;66092.38;;;0.00;nan
9091;BME280;4581;42.416;25.598;2023-05-08T08:27:56;66038.97;;;0.00;nan
9091;BME280;4581;42.416;25.598;2023-05-08T08:30:23;66003.88;;;0.00;nan
9091;BME280;4581;42.416;25.598;2023-05-08T08:32:50;66025.22;;;0.00;nan
9091;BME280;4581;42.416;25.598;2023-05-08T08:35:17;65973.34;;;0.00;nan
9091;BME280;4581;42.416;25.598;2023-05-08T08:37:44;65953.50;;;0.00;nan
9091;BME280;4581;42.416;25.598;2023-05-08T08:40:11;65924.50;;;0.00;nan
9091;BME280;4581;42.416;25.598;2023-05-08T08:42:37;65927.56;;;0.00;nan
9091;BME280;4581;42.416;25.598;2023-05-08T08:45:05;65936.72;;;0.00;nan
9091;BME280;4581;42.416;25.598;2023-05-08T08:47:36;65965.72;;;0.00;nan
9091;BME280;4581;42.416;25.598;2023-05-08T08:50:03;65958.09;;;0.00;nan
9091;BME280;4581;42.416;25.598;2023-05-08T08:52:39;65948.94;;;0.00;nan
9091;BME280;4581;42.416;25.598;2023-05-08T08:55:09;65927.56;;;0.00;nan
9091;BME280;4581;42.416;25.598;2023-05-08T08:57:42;65948.94;;;0.00;nan
9091;BME280;4581;42.416;25.598;2023-05-08T09:00:11;65927.56;;;0.00;nan
9091;BME280;4581;42.416;25.598;2023-05-08T09:02:38;65938.25;;;0.00;nan
9091;BME280;4581;42.416;25.598;2023-05-08T09:05:06;65913.84;;;0.00;nan
9091;BME280;4581;42.416;25.598;2023-05-08T09:07:33;65903.16;;;0.00;nan
9091;BME280;4581;42.416;25.598;2023-05-08T09:10:00;65898.56;;;0.00;nan
9091;BME280;4581;42.416;25.598;2023-05-08T09:12:28;65915.38;;;0.00;nan
9091;BME280;4581;42.416;25.598;2023-05-08T09:14:54;66017.59;;;0.00;nan
9091;BME280;4581;42.416;25.598;2023-05-08T09:17:21;66011.50;;;0.00;nan
9091;BME280;4581;42.416;25.598;2023-05-08T09:19:48;65970.28;;;0.00;nan
9091;BME280;4581;42.416;25.598;2023-05-08T09:22:16;65971.81;;;0.00;nan
9091;BME280;4581;42.416;25.598;2023-05-08T09:24:57;65915.38;;;0.00;nan
9091;BME280;4581;42.416;25.598;2023-05-08T09:27:26;65910.78;;;0.00;nan
9091;BME280;4581;42.416;25.598;2023-05-08T09:30:05;65901.63;;;0.00;nan
9091;BME280;4581;42.416;25.598;2023-05-08T09:32:40;65875.69;;;0.00;nan
9091;BME280;4581;42.416;25.598;2023-05-08T09:35:08;65854.31;;;0.00;nan
9091;BME280;4581;42.416;25.598;2023-05-08T09:37:40;65811.59;;;0.00;nan
9091;BME280;4581;42.416;25.598;2023-05-08T09:40:21;65868.06;;;0.00;nan
9091;BME280;4581;42.416;25.598;2023-05-08T09:42:49;65865.00;;;0.00;nan
9091;BME280;4581;42.416;25.598;2023-05-08T09:45:29;65848.22;;;0.00;nan
9091;BME280;4581;42.416;25.598;2023-05-08T09:48:00;65832.97;;;0.00;nan
9091;BME280;4581;42.416;25.598;2023-05-08T09:50:27;65811.59;;;0.00;nan
9091;BME280;4581;42.416;25.598;2023-05-08T09:52:54;65808.56;;;0.00;nan
9091;BME280;4581;42.416;25.598;2023-05-08T09:55:21;65826.84;;;0.00;nan
9091;BME280;4581;42.416;25.598;2023-05-08T10:00:26;65746.00;;;0.00;nan
9091;BME280;4581;42.416;25.598;2023-05-08T10:03:00;65720.03;;;0.00;nan
9091;BME280;4581;42.416;25.598;2023-05-08T10:05:32;65684.94;;;0.00;nan
9091;BME280;4581;42.416;25.598;2023-05-08T10:08:21;65672.75;;;0.00;nan
9091;BME280;4581;42.416;25.598;2023-05-08T10:10:48;65634.59;;;0.00;nan
9091;BME280;4581;42.416;25.598;2023-05-08T10:13:15;65634.59;;;0.00;nan
9091;BME280;4581;42.416;25.598;2023-05-08T10:15:42;65631.53;;;0.00;nan
9091;BME280;4581;42.416;25.598;2023-05-08T10:18:10;65633.06;;;0.00;nan
9091;BME280;4581;42.416;25.598;2023-05-08T10:20:41;65634.59;;;0.00;nan
9091;BME280;4581;42.416;25.598;2023-05-08T10:23:13;65646.81;;;0.00;nan
9091;BME280;4581;42.416;25.598;2023-05-08T10:25:45;65628.50;;;0.00;nan
9091;BME280;4581;42.416;25.598;2023-05-08T10:28:21;65594.94;;;0.00;nan
9091;BME280;4581;42.416;25.598;2023-05-08T10:30:49;65575.09;;;0.00;nan
9091;BME280;4581;42.416;25.598;2023-05-08T10:33:20;65546.09;;;0.00;nan
9091;BME280;4581;42.416;25.598;2023-05-08T10:35:47;65575.09;;;0.00;nan
9091;BME280;4581;42.416;25.598;2023-05-08T10:38:15;65630.03;;;0.00;nan
9091;BME280;4581;42.416;25.598;2023-05-08T10:40:42;65634.59;;;0.00;nan
9091;BME280;4581;42.416;25.598;2023-05-08T10:43:09;65659.00;;;0.00;nan
9091;BME280;4581;42.416;25.598;2023-05-08T10:45:37;65617.81;;;0.00;nan
9091;BME280;4581;42.416;25.598;2023-05-08T10:55:58;65546.09;;;0.00;nan
9091;BME280;4581;42.416;25.598;2023-05-08T10:58:30;65559.81;;;0.00;nan
9091;BME280;4581;42.416;25.598;2023-05-08T11:03:30;65659.00;;;0.00;nan
9091;BME280;4581;42.416;25.598;2023-05-08T11:05:59;65611.72;;;0.00;nan
9091;BME280;4581;42.416;25.598;2023-05-08T11:08:28;65585.78;;;0.00;nan
9091;BME280;4581;42.416;25.598;2023-05-08T11:13:37;65626.97;;;0.00;nan
9091;BME280;4581;42.416;25.598;2023-05-08T11:16:04;65630.03;;;0.00;nan
9091;BME280;4581;42.416;25.598;2023-05-08T11:18:36;65565.94;;;0.00;nan
9091;BME280;4581;42.416;25.598;2023-05-08T11:21:19;65613.22;;;0.00;nan
9091;BME280;4581;42.416;25.598;2023-05-08T11:23:55;65636.13;;;0.00;nan
9091;BME280;4581;42.416;25.598;2023-05-08T11:26:37;65573.56;;;0.00;nan
9091;BME280;4581;42.416;25.598;2023-05-08T11:29:15;65552.19;;;0.00;nan
9091;BME280;4581;42.416;25.598;2023-05-08T11:31:48;65556.78;;;0.00;nan
9091;BME280;4581;42.416;25.598;2023-05-08T11:37:21;65495.75;;;0.00;nan
9091;BME280;4581;42.416;25.598;2023-05-08T11:39:49;65489.63;;;0.00;nan
9091;BME280;4581;42.416;25.598;2023-05-08T11:45:09;65503.38;;;0.00;nan
9091;BME280;4581;42.416;25.598;2023-05-08T11:47:43;65524.72;;;0.00;nan
9091;BME280;4581;42.416;25.598;2023-05-08T11:50:12;65480.47;;;0.00;nan
9091;BME280;4581;42.416;25.598;2023-05-08T11:52:40;65483.53;;;0.00;nan
9091;BME280;4581;42.416;25.598;2023-05-08T11:55:10;65427.06;;;0.00;nan
9091;BME280;4581;42.416;25.598;2023-05-08T11:57:38;65402.66;;;0.00;nan
9091;BME280;4581;42.416;25.598;2023-05-08T12:00:06;65352.31;;;0.00;nan
9091;BME280;4581;42.416;25.598;2023-05-08T12:02:38;65361.47;;;0.00;nan
9091;BME280;4581;42.416;25.598;2023-05-08T12:05:06;65396.56;;;0.00;nan
9091;BME280;4581;42.416;25.598;2023-05-08T12:07:46;65434.72;;;0.00;nan
9091;BME280;4581;42.416;25.598;2023-05-08T12:10:13;65460.66;;;0.00;nan
9091;BME280;4581;42.416;25.598;2023-05-08T12:12:42;65475.91;;;0.00;nan
9091;BME280;4581;42.416;25.598;2023-05-08T12:15:12;65494.22;;;0.00;nan
9091;BME280;4581;42.416;25.598;2023-05-08T12:17:39;65497.28;;;0.00;nan
9091;BME280;4581;42.416;25.598;2023-05-08T12:22:40;65543.03;;;0.00;nan
9091;BME280;4581;42.416;25.598;2023-05-08T12:25:09;65567.47;;;0.00;nan
9091;BME280;4581;42.416;25.598;2023-05-08T12:27:37;65588.81;;;0.00;nan
9091;BME280;4581;42.416;25.598;2023-05-08T12:30:09;65645.28;;;0.00;nan
9091;BME280;4581;42.416;25.598;2023-05-08T12:32:38;65646.81;;;0.00;nan
9091;BME280;4581;42.416;25.598;2023-05-08T12:35:06;65639.19;;;0.00;nan
9091;BME280;4581;42.416;25.598;2023-05-08T12:37:33;65634.59;;;0.00;nan
9091;BME280;4581;42.416;25.598;2023-05-08T12:40:00;65674.28;;;0.00;nan
9091;BME280;4581;42.416;25.598;2023-05-08T12:42:49;65697.16;;;0.00;nan
9091;BME280;4581;42.416;25.598;2023-05-08T12:45:24;65671.22;;;0.00;nan
9091;BME280;4581;42.416;25.598;2023-05-08T12:47:52;65651.38;;;0.00;nan
9091;BME280;4581;42.416;25.598;2023-05-08T12:50:20;65637.66;;;0.00;nan
9091;BME280;4581;42.416;25.598;2023-05-08T12:52:48;65622.38;;;0.00;nan
9091;BME280;4581;42.416;25.598;2023-05-08T12:55:24;65625.44;;;0.00;nan
9091;BME280;4581;42.416;25.598;2023-05-08T12:58:08;65622.38;;;0.00;nan
9091;BME280;4581;42.416;25.598;2023-05-08T13:00:48;65617.81;;;0.00;nan
9091;BME280;4581;42.416;25.598;2023-05-08T13:03:27;65616.28;;;0.00;nan
9091;BME280;4581;42.416;25.598;2023-05-08T13:05:57;65608.66;;;0.00;nan
9091;BME280;4581;42.416;25.598;2023-05-08T13:08:31;65616.28;;;0.00;nan
9091;BME280;4581;42.416;25.598;2023-05-08T13:11:01;65619.34;;;0.00;nan
9091;BME280;4581;42.416;25.598;2023-05-08T13:13:33;65614.75;;;0.00;nan
9091;BME280;4581;42.416;25.598;2023-05-08T13:16:04;65616.28;;;0.00;nan
9091;BME280;4581;42.416;25.598;2023-05-08T13:18:32;65619.34;;;0.00;nan
9091;BME280;4581;42.416;25.598;2023-05-08T13:21:01;65643.75;;;0.00;nan
9091;BME280;4581;42.416;25.598;2023-05-08T13:23:29;65646.81;;;0.00;nan
9091;BME280;4581;42.416;25.598;2023-05-08T13:25:55;65659.00;;;0.00;nan
9091;BME280;4581;42.416;25.598;2023-05-08T13:28:22;65660.53;;;0.00;nan
9091;BME280;4581;42.416;25.598;2023-05-08T13:30:49;65668.16;;;0.00;nan
9091;BME280;4581;42.416;25.598;2023-05-08T13:33:16;65677.31;;;0.00;nan
9091;BME280;4581;42.416;25.598;2023-05-08T13:35:43;65709.38;;;0.00;nan
9091;BME280;4581;42.416;25.598;2023-05-08T13:38:09;65736.84;;;0.00;nan
9091;BME280;4581;42.416;25.598;2023-05-08T13:40:36;65788.72;;;0.00;nan
9091;BME280;4581;42.416;25.598;2023-05-08T13:43:03;65825.34;;;0.00;nan
9091;BME280;4581;42.416;25.598;2023-05-08T13:45:29;65900.09;;;0.00;nan
9091;BME280;4581;42.416;25.598;2023-05-08T13:47:58;65921.47;;;0.00;nan
9091;BME280;4581;42.416;25.598;2023-05-08T13:50:25;65958.09;;;0.00;nan
9091;BME280;4581;42.416;25.598;2023-05-08T13:52:51;65979.44;;;0.00;nan
9091;BME280;4581;42.416;25.598;2023-05-08T13:55:20;66005.38;;;0.00;nan
9091;BME280;4581;42.416;25.598;2023-05-08T13:57:48;66019.13;;;0.00;nan
9091;BME280;4581;42.416;25.598;2023-05-08T14:00:15;66031.31;;;0.00;nan
9091;BME280;4581;42.416;25.598;2023-05-08T14:02:42;66052.69;;;0.00;nan
9091;BME280;4581;42.416;25.598;2023-05-08T14:05:09;66084.72;;;0.00;nan
9091;BME280;4581;42.416;25.598;2023-05-08T14:07:36;66110.69;;;0.00;nan
9091;BME280;4581;42.416;25.598;2023-05-08T14:10:03;66124.41;;;0.00;nan
9091;BME280;4581;42.416;25.598;2023-05-08T14:12:30;66138.13;;;0.00;nan
9091;BME280;4581;42.416;25.598;2023-05-08T14:15:04;66141.19;;;0.00;nan
9091;BME280;4581;42.416;25.598;2023-05-08T14:17:31;66135.09;;;0.00;nan
9091;BME280;4581;42.416;25.598;2023-05-08T14:19:58;66122.88;;;0.00;nan
9091;BME280;4581;42.416;25.598;2023-05-08T14:22:25;66115.25;;;0.00;nan
9091;BME280;4581;42.416;25.598;2023-05-08T14:24:52;66110.69;;;0.00;nan
9091;BME280;4581;42.416;25.598;2023-05-08T14:27:19;66106.09;;;0.00;nan
9091;BME280;4581;42.416;25.598;2023-05-08T14:29:46;66095.41;;;0.00;nan
9091;BME280;4581;42.416;25.598;2023-05-08T14:32:12;66096.94;;;0.00;nan
9091;BME280;4581;42.416;25.598;2023-05-08T14:34:39;66086.25;;;0.00;nan
9091;BME280;4581;42.416;25.598;2023-05-08T14:37:06;66080.16;;;0.00;nan
9091;BME280;4581;42.416;25.598;2023-05-08T14:39:32;66093.88;;;0.00;nan
9091;BME280;4581;42.416;25.598;2023-05-08T14:42:00;66089.31;;;0.00;nan
9091;BME280;4581;42.416;25.598;2023-05-08T14:44:47;66075.56;;;0.00;nan
9091;BME280;4581;42.416;25.598;2023-05-08T14:47:14;66080.16;;;0.00;nan
9091;BME280;4581;42.416;25.598;2023-05-08T14:49:40;66086.25;;;0.00;nan
9091;BME280;4581;42.416;25.598;2023-05-08T14:52:07;66084.72;;;0.00;nan
9091;BME280;4581;42.416;25.598;2023-05-08T14:54:34;66092.38;;;0.00;nan